Flight Track Log - Related Links

Times and Time Zones

All times are in EDT time to prevent confusion due to time zone crossing. See the RPA3228 flight status page for this flight to view local times or setup timezone preferences in your user account.

Time Position Orientation Groundspeed Altitude Reporting Facility
EDT Latitude Longitude Course Direction KTS MPH feet Rate Location/Type
Fri 07:17:52 AM 41.5250 -93.6764 86° East 165 190 2,000  Level Minneapolis Center
Fri 07:18:34 AM 41.5033 -93.7008 220° Southwest 171 197 2,900 1,556 Climbing Minneapolis Center
Fri 07:19:13 AM 41.4692 -93.6706 146° Southeast 223 257 4,100 1,672 Climbing Minneapolis Center
Fri 07:19:35 AM 41.4769 -93.6336 74° East 246 283 4,600 2,500 Climbing Minneapolis Center
Fri 07:20:00 AM 41.4428 -93.3219 82° East  Level FlightAware Approximate
Fri 07:20:13 AM 41.4733 -93.5728 95° East 269 310 6,600  Level Minneapolis Center
Fri 07:21:00 AM 41.4501 -93.1720 90° East  Level FlightAware Approximate
Fri 07:21:14 AM 41.4764 -93.4700 88° East 278 320 9,500  Level Minneapolis Center
Fri 07:22:00 AM 41.4500 -93.0216 90° East  Level FlightAware Approximate
Fri 07:22:15 AM 41.4800 -93.3594 87° East 296 341 11,300  Level Minneapolis Center
Fri 07:23:00 AM 41.4570 -92.8727 86° East  Level FlightAware Approximate
Fri 07:23:15 AM 41.4836 -93.2347 88° East 333 383 13,300  Level Minneapolis Center
Fri 07:24:16 AM 41.4875 -93.0947 88° East 350 403 15,800 2,164 Climbing Minneapolis Center
Fri 07:25:17 AM 41.4908 -92.9633 88° East 357 411 17,700 1,820 Climbing Minneapolis Center
Fri 07:26:18 AM 41.4939 -92.8356 88° East 363 418 19,500 1,686 Climbing Minneapolis Center
Fri 07:27:18 AM 41.4978 -92.6958 88° East 372 428 21,100 1,588 Climbing Minneapolis Center
Fri 07:28:00 AM 41.5000 -92.5856 88° East 389 448 22,200 1,528 Climbing Chicago Center
Fri 07:29:04 AM 41.5042 -92.4414 88° East 394 453 23,800 1,500 Climbing Chicago Center
Fri 07:30:04 AM 41.5069 -92.2961 88° East 397 457 25,300 1,289 Climbing Chicago Center
Fri 07:31:05 AM 41.5097 -92.1453 89° East 409 471 26,400 1,065 Climbing Chicago Center
Fri 07:32:08 AM 41.5131 -91.9919 88° East 417 480 27,500 1,122 Climbing Chicago Center
Fri 07:33:08 AM 41.5161 -91.8336 88° East 432 497 28,700 1,268 Climbing Chicago Center
Fri 07:34:11 AM 41.5189 -91.6394 89° East 443 510 30,100 1,220 Climbing Chicago Center
Fri 07:35:11 AM 41.5217 -91.4750 89° East 447 514 31,200 1,190 Climbing Chicago Center
Fri 07:36:12 AM 41.5186 -91.3092 91° East 450 518 32,500 1,258 Climbing Chicago Center
Fri 07:37:15 AM 41.4986 -91.1472 99° East 447 514 33,800 1,104 Climbing Chicago Center
Fri 07:38:17 AM 41.4797 -90.9853 99° East 443 510 34,800 585 Climbing Chicago Center
Fri 07:39:18 AM 41.4603 -90.8219 99° East 446 513 35,000 98 Climbing Chicago Center
Fri 07:40:19 AM 41.4397 -90.6581 99° East 449 517 35,000  Level Chicago Center
Fri 07:41:21 AM 41.4189 -90.4964 100° East 444 511 35,000  Level Chicago Center
Fri 07:42:21 AM 41.3961 -90.2997 99° East 446 513 35,000  Level Chicago Center
Fri 07:43:25 AM 41.3739 -90.1361 100° East 447 514 35,000  Level Chicago Center
Fri 07:44:25 AM 41.3539 -89.9719 99° East 447 514 35,000  Level Chicago Center
Fri 07:45:25 AM 41.3336 -89.8081 99° East 447 514 35,000  Level Chicago Center
Fri 07:46:28 AM 41.3125 -89.6422 100° East 451 519 35,000  Level Chicago Center
Fri 07:47:30 AM 41.2906 -89.4775 100° East 451 519 35,000  Level Chicago Center
Fri 07:48:30 AM 41.2686 -89.3158 100° East 445 512 35,000  Level Chicago Center
Fri 07:49:31 AM 41.2453 -89.1592 101° East 440 506 35,000  Level Chicago Center
Fri 07:50:35 AM 41.2242 -88.9967 100° East 447 514 35,000  Level Chicago Center
Fri 07:51:36 AM 41.1975 -88.8022 100° East 450 518 35,000  Level Chicago Center
Fri 07:52:36 AM 41.1742 -88.6414 101° East 450 518 35,000  Level Chicago Center
Fri 07:53:39 AM 41.1525 -88.4819 100° East 444 511 35,000  Level Chicago Center
Fri 07:54:40 AM 41.1308 -88.3231 100° East 443 510 35,000  Level Chicago Center
Fri 07:55:41 AM 41.1072 -88.1650 101° East 444 511 35,000  Level Chicago Center
Fri 07:56:42 AM 41.0797 -87.9758 101° East 443 510 35,000  Level Chicago Center
Fri 07:57:46 AM 41.0567 -87.8156 101° East 448 516 35,000  Level Chicago Center
Fri 07:58:46 AM 41.0331 -87.6583 101° East 444 511 35,000  Level Chicago Center
Fri 07:59:47 AM 41.0100 -87.4986 101° East 446 513 35,000  Level Chicago Center
Fri 08:00:50 AM 40.9842 -87.3417 102° East 442 509 35,000  Level Chicago Center
Fri 08:01:51 AM 40.9597 -87.1814 101° East 446 513 35,000  Level Chicago Center
Fri 08:02:52 AM 40.9300 -86.9900 102° East 447 514 35,000  Level Chicago Center
Fri 08:03:53 AM 40.9061 -86.8297 101° East 447 514 35,000  Level Chicago Center
Fri 08:04:55 AM 40.8831 -86.6842 102° East 449 517 35,000  Level Chicago Center
Fri 08:05:57 AM 40.8564 -86.5228 102° East 452 520 35,000  Level Chicago Center
Fri 08:06:58 AM 40.8258 -86.3328 102° East 446 513 35,000  Level Chicago Center
Fri 08:07:59 AM 40.7997 -86.1725 102° East 449 517 35,000  Level Chicago Center
Fri 08:09:03 AM 40.7722 -86.0119 103° East 453 521 35,000  Level Chicago Center
Fri 08:10:05 AM 40.7464 -85.8542 102° East 447 514 35,000  Level Chicago Center
Fri 08:11:05 AM 40.7192 -85.6953 103° East 447 514 35,000  Level Chicago Center
Fri 08:12:05 AM 40.6925 -85.5367 102° East 447 514 35,000  Level Chicago Center
Fri 08:13:09 AM 40.6636 -85.3639 102° East 448 516 35,000  Level Chicago Center
Fri 08:14:10 AM 40.6361 -85.1981 102° East 459 528 35,000  Level Chicago Center
Fri 08:14:42 AM 40.6189 -85.1047 104° East 446 513 35,000  Level Indianapolis Center
Fri 08:15:44 AM 40.5914 -84.9442 103° East 451 519 35,000  Level Indianapolis Center
Fri 08:16:46 AM 40.5606 -84.7714 103° East 450 518 35,000  Level Indianapolis Center
Fri 08:17:47 AM 40.5319 -84.6083 103° East 452 520 35,000  Level Indianapolis Center
Fri 08:18:49 AM 40.5036 -84.4478 103° East 449 517 35,000  Level Indianapolis Center
Fri 08:19:50 AM 40.4731 -84.2850 104° East 455 524 35,000  Level Indianapolis Center
Fri 08:20:52 AM 40.4447 -84.1225 103° East 452 520 35,000  Level Indianapolis Center
Fri 08:21:54 AM 40.4142 -83.9606 104° East 452 520 35,000  Level Indianapolis Center
Fri 08:22:55 AM 40.3786 -83.7711 104° East 454 522 35,000  Level Indianapolis Center
Fri 08:23:57 AM 40.3483 -83.6075 104° East 454 522 35,000  Level Indianapolis Center
Fri 08:24:59 AM 40.3169 -83.4453 104° East 454 522 35,000  Level Indianapolis Center
Fri 08:26:00 AM 40.2858 -83.2814 104° East 455 524 35,000  Level Indianapolis Center
Fri 08:27:02 AM 40.2547 -83.1175 104° East 457 526 35,000  Level Indianapolis Center
Fri 08:28:04 AM 40.2228 -82.9553 104° East 455 524 35,000  Level Indianapolis Center
Fri 08:29:06 AM 40.1919 -82.7928 104° East 455 524 35,000  Level Indianapolis Center
Fri 08:30:07 AM 40.1597 -82.6297 104° East 458 527 35,000  Level Indianapolis Center
Fri 08:31:09 AM 40.1178 -82.4714 109° East 455 524 35,000  Level Indianapolis Center
Fri 08:32:11 AM 40.0703 -82.3161 112° Southeast 454 522 35,000  Level Indianapolis Center
Fri 08:33:13 AM 40.0233 -82.1600 111° Southeast 456 525 35,000  Level Indianapolis Center
Fri 08:34:14 AM 39.9769 -82.0033 111° Southeast 459 528 35,000  Level Indianapolis Center
Fri 08:35:16 AM 39.9294 -81.8486 112° Southeast 457 526 35,000  Level Indianapolis Center
Fri 08:36:18 AM 39.8747 -81.6678 111° Southeast 456 525 35,000  Level Indianapolis Center
Fri 08:36:56 AM 39.8481 -81.5861 113° Southeast 453 521 35,000  Level Cleveland Center
Fri 08:37:56 AM 39.7972 -81.4314 113° Southeast 453 521 35,000  Level Cleveland Center
Fri 08:38:56 AM 39.7525 -81.2636 109° East 453 521 35,000  Level Cleveland Center
Fri 08:39:56 AM 39.7053 -81.1092 112° Southeast 453 521 35,000 -50 Level Cleveland Center
Fri 08:40:56 AM 39.6581 -80.9525 111° Southeast 453 521 34,900  Descending Cleveland Center
Fri 08:41:56 AM 39.6106 -80.8014 112° Southeast 453 521 35,000 65 Climbing Cleveland Center
Fri 08:42:28 AM 39.5864 -80.7386 117° Southeast 460 529 35,000  Level Indianapolis Center
Fri 08:43:30 AM 39.5383 -80.5839 112° Southeast 460 529 35,000  Level Indianapolis Center
Fri 08:43:56 AM 39.5128 -80.4942 110° East 459 528 35,000  Level Cleveland Center
Fri 08:44:56 AM 39.4644 -80.3436 113° Southeast 459 528 35,000  Level Cleveland Center
Fri 08:45:39 AM 39.4339 -80.2539 114° Southeast 450 518 35,000 -58 Level Washington Center
Fri 08:46:40 AM 39.3856 -80.1003 112° Southeast 450 518 34,900 -1,230 Descending Washington Center
Fri 08:47:41 AM 39.3389 -79.9472 111° Southeast 450 518 32,500 -1,934 Descending Washington Center
Fri 08:48:41 AM 39.2967 -79.7917 109° East 455 524 31,000 -763 Descending Washington Center
Fri 08:49:39 AM 39.2794 -79.6244 98° East 465 535 31,000  Level Washington Center
Fri 08:50:40 AM 39.2681 -79.4628 95° East 460 529 31,000 -1,000 Level Washington Center
Fri 08:51:39 AM 39.2567 -79.2961 95° East 460 529 29,000 -1,966 Descending Washington Center
Fri 08:52:39 AM 39.2369 -79.1156 98° East 465 535 27,100 -1,488 Descending Washington Center
Fri 08:53:40 AM 39.2228 -78.9594 97° East 454 522 26,000 -1,623 Descending Washington Center
Fri 08:54:41 AM 39.2081 -78.8086 97° East 437 503 23,800 -2,288 Descending Washington Center
Fri 08:55:38 AM 39.1933 -78.6581 97° East 425 489 21,500 -2,237 Descending Washington Center
Fri 08:56:39 AM 39.1800 -78.5183 97° East 413 475 19,400 -1,918 Descending Washington Center
Fri 08:57:40 AM 39.1644 -78.3811 98° East 394 453 17,600 -1,613 Descending Washington Center
Fri 08:58:38 AM 39.1381 -78.2622 106° East 369 425 16,200 -1,160 Descending Washington Center
Fri 08:59:39 AM 39.1094 -78.1436 107° East 354 407 15,300 -934 Descending Washington Center
Fri 09:00:40 AM 39.0783 -78.0303 109° East 343 395 14,300 -992 Descending Washington Center
Fri 09:01:40 AM 39.0514 -77.9197 107° East 337 388 13,300 -1,109 Descending Washington Center
Fri 09:02:39 AM 39.0281 -77.8256 108° East 294 338 12,100 -1,160 Descending Washington Center
Fri 09:03:39 AM 39.0028 -77.7339 110° East 289 333 11,000 -595 Descending Washington Center
Fri 09:04:40 AM 38.9753 -77.6317 109° East 289 333 10,900 -628 Descending Washington Center
Fri 09:05:05 AM 38.9667 -77.5833 103° East 283 326 10,100 -1,500 Descending Potomac TRACON
Fri 09:06:00 AM 38.9333 -77.5000 117° Southeast 261 300 8,900 -1,252 Descending Potomac TRACON
Fri 09:07:00 AM 38.9000 -77.4333 123° Southeast 233 268 7,700 -1,050 Descending Potomac TRACON
Fri 09:08:00 AM 38.8667 -77.3667 123° Southeast 221 254 6,800 -850 Descending Potomac TRACON
Fri 09:09:00 AM 38.8500 -77.3000 108° East 218 251 6,000 -400 Descending Potomac TRACON
Fri 09:10:00 AM 38.8167 -77.2333 123° Southeast 218 251 6,000  Level Potomac TRACON
Fri 09:10:54 AM 38.7833 -77.1667 123° Southeast 218 251 6,000  Level Potomac TRACON
Fri 09:11:54 AM 38.7500 -77.1167 131° Southeast 223 257 6,000 -300 Level Potomac TRACON
Fri 09:12:54 AM 38.7000 -77.1167 180° South 186 214 5,400 -500 Descending Potomac TRACON
Fri 09:13:54 AM 38.6333 -77.1000 169° South 189 217 5,000 -200 Descending Potomac TRACON
Fri 09:14:54 AM 38.5833 -77.1000 180° South 188 216 5,000  Level Potomac TRACON
Fri 09:15:49 AM 38.5333 -77.1000 180° South 187 215 5,000 -470 Level Potomac TRACON
Fri 09:16:49 AM 38.4833 -77.1000 180° South 187 215 4,100 -500 Descending Potomac TRACON
Fri 09:17:49 AM 38.4667 -77.0500 113° Southeast 191 220 4,000 -50 Descending Potomac TRACON
Fri 09:18:49 AM 38.5167 -77.0167 28° Northeast 175 201 4,000  Level Potomac TRACON
Fri 09:19:43 AM 38.5500 -77.0167 360° North 175 201 4,000  Level Potomac TRACON

Login

Don't have an account? Register now (free) for customized features, flight alerts, and more!